Time;durP1;ratioP1;P1;durP2;ratioP2;P2;SDS_P1;SDS_P2;PMS_P1;PMS_P2;Temp;Humidity;BMP_temperature;BMP_pressure;BME280_temperature;BME280_humidity;BME280_pressure;Samples;Min_cycle;Max_cycle;Signal;HPM_P1;HPM_P2
2024/03/25 00:01:51;;;;;;;2.27;1.43;;;4.80;94.00;;;;;;5049500;28;20198;-89
2024/03/25 00:04:20;;;;;;;1.60;1.50;;;4.80;93.80;;;;;;5049439;28;21032;-89
2024/03/25 00:06:47;;;;;;;5.67;2.17;;;4.80;94.20;;;;;;5033227;28;20198;-89
2024/03/25 00:09:14;;;;;;;2.70;1.80;;;4.80;94.00;;;;;;5037347;28;20209;-89
2024/03/25 00:11:41;;;;;;;2.27;1.60;;;4.60;94.50;;;;;;5053551;28;20876;-89
2024/03/25 00:14:07;;;;;;;2.10;1.87;;;4.70;94.20;;;;;;5044979;28;20251;-88
2024/03/25 00:16:35;;;;;;;2.40;1.70;;;4.70;94.50;;;;;;5044508;28;20598;-89
2024/03/25 00:19:01;;;;;;;4.63;1.90;;;4.80;93.90;;;;;;5048970;28;20201;-88
2024/03/25 00:21:29;;;;;;;1.70;1.40;;;4.90;93.50;;;;;;5052745;28;20205;-89
2024/03/25 00:23:56;;;;;;;2.17;1.50;;;4.90;93.20;;;;;;5047215;28;20198;-88
2024/03/25 00:26:23;;;;;;;4.03;1.73;;;4.90;92.90;;;;;;5047046;28;20257;-88
2024/03/25 00:28:49;;;;;;;2.13;1.57;;;4.80;93.00;;;;;;5050824;28;20217;-89
2024/03/25 00:31:16;;;;;;;1.60;1.50;;;4.80;93.30;;;;;;5042746;28;20221;-88
2024/03/25 00:33:42;;;;;;;3.50;1.90;;;4.80;93.30;;;;;;5050306;28;20202;-89
2024/03/25 00:36:08;;;;;;;2.67;1.80;;;4.70;93.60;;;;;;5050301;28;20741;-89
2024/03/25 00:38:36;;;;;;;2.93;1.80;;;4.60;93.50;;;;;;5045853;28;20226;-88
2024/03/25 00:41:03;;;;;;;3.57;1.80;;;4.70;93.30;;;;;;5044515;28;20194;-89
2024/03/25 00:43:28;;;;;;;3.87;1.80;;;4.70;93.40;;;;;;5045783;28;20597;-88
2024/03/25 00:45:56;;;;;;;3.53;2.10;;;4.70;93.20;;;;;;5030227;28;20202;-88
2024/03/25 00:48:22;;;;;;;3.30;1.77;;;4.70;93.70;;;;;;5037190;28;20217;-89
2024/03/25 00:50:49;;;;;;;2.40;1.70;;;4.70;93.30;;;;;;5043057;28;20222;-88
2024/03/25 00:53:15;;;;;;;4.20;1.60;;;4.60;93.50;;;;;;5047439;28;20204;-88
2024/03/25 00:55:43;;;;;;;2.37;1.50;;;4.70;93.40;;;;;;5044901;28;20198;-89
2024/03/25 00:58:09;;;;;;;2.37;1.70;;;4.60;93.60;;;;;;5047302;28;20198;-89
2024/03/25 01:00:36;;;;;;;2.03;1.63;;;4.50;93.90;;;;;;5049446;28;20198;-88
2024/03/25 01:03:03;;;;;;;2.40;1.47;;;4.30;94.00;;;;;;5042336;28;20191;-89
2024/03/25 01:05:29;;;;;;;2.77;1.80;;;4.40;94.00;;;;;;5044171;28;20280;-88
2024/03/25 01:07:55;;;;;;;3.20;1.80;;;4.30;94.10;;;;;;5046276;28;20214;-89
2024/03/25 01:10:22;;;;;;;1.90;1.40;;;4.20;94.90;;;;;;5036020;28;20202;-88
2024/03/25 01:12:49;;;;;;;1.90;1.43;;;4.30;94.90;;;;;;5054166;28;20667;-89
2024/03/25 01:15:16;;;;;;;3.87;1.50;;;4.30;94.40;;;;;;5053893;28;20207;-89
2024/03/25 01:17:42;;;;;;;2.50;1.30;;;4.30;94.50;;;;;;5052512;28;20234;-89
2024/03/25 01:20:10;;;;;;;2.43;1.50;;;4.40;94.20;;;;;;5047151;28;20226;-88
2024/03/25 01:22:36;;;;;;;2.83;1.70;;;4.30;94.60;;;;;;5025224;28;20205;-89
2024/03/25 01:25:03;;;;;;;2.43;1.60;;;4.30;95.00;;;;;;5047492;28;20202;-89
2024/03/25 01:27:29;;;;;;;3.17;1.43;;;4.30;94.90;;;;;;5042591;28;20254;-88
2024/03/25 01:29:57;;;;;;;4.37;1.80;;;4.40;95.00;;;;;;5050331;28;20240;-88
2024/03/25 01:32:23;;;;;;;4.37;1.87;;;4.40;94.20;;;;;;5044622;28;20237;-89
2024/03/25 01:34:50;;;;;;;3.37;1.60;;;4.30;94.20;;;;;;5047420;28;20218;-88
2024/03/25 01:37:16;;;;;;;2.07;1.60;;;4.20;94.90;;;;;;5040005;28;20647;-89
2024/03/25 01:39:43;;;;;;;2.67;1.77;;;4.20;94.90;;;;;;5019939;28;20323;-88
2024/03/25 01:42:09;;;;;;;2.10;1.50;;;4.10;94.90;;;;;;5050966;28;20198;-88
2024/03/25 01:44:37;;;;;;;4.07;1.57;;;4.10;94.90;;;;;;5049357;28;20226;-89
2024/03/25 01:47:04;;;;;;;1.70;1.53;;;4.20;94.90;;;;;;5043709;28;20194;-88
2024/03/25 01:49:32;;;;;;;4.17;1.53;;;4.30;94.60;;;;;;5043650;28;20199;-88
2024/03/25 01:51:58;;;;;;;2.57;1.37;;;4.30;94.00;;;;;;5050092;28;20216;-89
2024/03/25 01:54:25;;;;;;;3.10;1.80;;;4.40;93.60;;;;;;5050597;28;20199;-89
2024/03/25 01:56:53;;;;;;;2.60;1.60;;;4.40;93.60;;;;;;5050152;28;20202;-88
2024/03/25 01:59:20;;;;;;;2.03;1.30;;;4.30;94.10;;;;;;5047589;28;20198;-88
2024/03/25 02:01:46;;;;;;;2.30;1.50;;;4.30;94.00;;;;;;5053112;28;20207;-89
2024/03/25 02:04:14;;;;;;;2.73;1.50;;;4.20;94.00;;;;;;5054357;28;20212;-88
2024/03/25 02:06:42;;;;;;;4.03;1.73;;;4.30;94.20;;;;;;5048723;28;20203;-88
2024/03/25 02:09:12;;;;;;;2.00;1.60;;;4.40;93.80;;;;;;5012121;28;20223;-89
2024/03/25 02:11:38;;;;;;;2.00;1.50;;;4.30;93.70;;;;;;5043139;28;20199;-88
2024/03/25 02:14:05;;;;;;;1.77;1.47;;;4.30;93.70;;;;;;5046519;28;20204;-88
2024/03/25 02:16:31;;;;;;;1.87;1.30;;;4.40;93.60;;;;;;5038044;28;20206;-89
2024/03/25 02:18:58;;;;;;;2.37;1.60;;;4.40;93.60;;;;;;5045153;28;20590;-88
2024/03/25 02:21:25;;;;;;;2.80;1.50;;;4.50;93.40;;;;;;5046273;28;20202;-88
2024/03/25 02:23:57;;;;;;;2.53;1.43;;;4.40;92.90;;;;;;5023613;28;20237;-88
2024/03/25 02:26:24;;;;;;;2.20;1.73;;;4.40;93.70;;;;;;5046973;28;20213;-89
2024/03/25 02:28:51;;;;;;;1.80;1.60;;;4.40;93.30;;;;;;5043955;28;20686;-88
2024/03/25 02:31:18;;;;;;;2.60;1.40;;;4.40;93.30;;;;;;5044377;28;20201;-88
2024/03/25 02:33:45;;;;;;;1.87;1.53;;;4.30;93.60;;;;;;5049868;28;20662;-89
2024/03/25 02:36:11;;;;;;;1.90;1.60;;;4.30;93.90;;;;;;5030752;28;20195;-88
2024/03/25 02:38:38;;;;;;;3.07;1.70;;;4.30;93.60;;;;;;5047533;28;20209;-88
2024/03/25 02:41:04;;;;;;;3.73;1.47;;;4.30;93.30;;;;;;5012173;28;20644;-88
2024/03/25 02:43:33;;;;;;;2.00;1.40;;;4.30;93.40;;;;;;5043552;28;20219;-89
2024/03/25 02:45:58;;;;;;;2.20;1.67;;;4.40;93.10;;;;;;5032598;28;20206;-89
2024/03/25 02:48:25;;;;;;;2.80;1.70;;;4.40;93.40;;;;;;5030531;28;20855;-89
2024/03/25 02:50:51;;;;;;;2.40;1.60;;;4.30;93.10;;;;;;5044011;28;20205;-89
2024/03/25 02:53:18;;;;;;;3.57;2.00;;;4.20;93.40;;;;;;5031431;28;20202;-88
2024/03/25 02:55:44;;;;;;;2.10;1.60;;;4.20;93.60;;;;;;5046698;28;20194;-88
2024/03/25 02:58:11;;;;;;;2.43;1.87;;;4.40;93.10;;;;;;5026788;28;20217;-89
2024/03/25 03:00:38;;;;;;;1.93;1.83;;;4.40;93.40;;;;;;5054735;28;20201;-88
2024/03/25 03:03:05;;;;;;;2.03;1.73;;;4.40;92.80;;;;;;5055023;28;20197;-89
2024/03/25 03:05:32;;;;;;;3.77;2.40;;;4.40;92.80;;;;;;5045467;28;20203;-88
2024/03/25 03:07:59;;;;;;;4.13;2.00;;;4.30;93.30;;;;;;5004724;28;20218;-88
2024/03/25 03:10:25;;;;;;;3.53;1.70;;;4.20;93.40;;;;;;5047279;28;20205;-89
2024/03/25 03:12:52;;;;;;;3.47;1.87;;;4.20;93.60;;;;;;5041497;28;20678;-89
2024/03/25 03:15:17;;;;;;;3.37;1.83;;;4.20;93.60;;;;;;5041899;28;20216;-89
2024/03/25 03:17:46;;;;;;;2.67;2.00;;;4.20;93.50;;;;;;5044422;28;20199;-88
2024/03/25 03:20:11;;;;;;;2.67;1.80;;;4.30;93.20;;;;;;5049402;28;20198;-89
2024/03/25 03:22:38;;;;;;;1.67;1.57;;;4.30;93.10;;;;;;5047327;28;20738;-89
2024/03/25 03:25:05;;;;;;;2.27;1.77;;;4.30;93.20;;;;;;5053417;28;20201;-88
2024/03/25 03:27:32;;;;;;;2.83;2.00;;;4.20;93.10;;;;;;5043892;28;20198;-88
2024/03/25 03:29:58;;;;;;;3.50;2.20;;;4.20;93.30;;;;;;5046527;28;20199;-88
2024/03/25 03:32:25;;;;;;;2.13;1.70;;;4.20;93.80;;;;;;5046813;28;20255;-88
2024/03/25 03:34:52;;;;;;;3.07;1.60;;;4.40;93.20;;;;;;5052163;28;20678;-88
2024/03/25 03:37:19;;;;;;;3.20;1.73;;;4.30;92.90;;;;;;5042811;28;20221;-88
2024/03/25 03:39:44;;;;;;;2.77;1.97;;;4.30;93.60;;;;;;5049222;28;20198;-88
2024/03/25 03:42:11;;;;;;;2.73;1.60;;;4.30;93.00;;;;;;5046031;28;20202;-89
2024/03/25 03:44:37;;;;;;;3.83;1.90;;;4.30;92.90;;;;;;5028751;28;20228;-88
2024/03/25 03:47:04;;;;;;;4.37;2.10;;;4.30;93.10;;;;;;5052876;28;20193;-88
2024/03/25 03:49:30;;;;;;;3.70;2.17;;;4.20;93.20;;;;;;5016920;28;21689;-88
2024/03/25 03:51:59;;;;;;;2.80;1.77;;;4.10;93.40;;;;;;5028779;28;20240;-89
2024/03/25 03:54:24;;;;;;;2.90;1.70;;;4.00;93.50;;;;;;5047232;28;20199;-89
2024/03/25 03:56:51;;;;;;;2.97;2.07;;;4.00;93.70;;;;;;5050080;28;20204;-88
2024/03/25 03:59:17;;;;;;;2.37;1.83;;;4.00;93.70;;;;;;5048511;28;20200;-88
2024/03/25 04:01:44;;;;;;;4.43;1.90;;;3.90;93.50;;;;;;5053269;28;20639;-89
2024/03/25 04:04:10;;;;;;;6.50;2.00;;;3.90;93.40;;;;;;5044948;28;20753;-89
2024/03/25 04:06:39;;;;;;;2.23;2.00;;;3.90;93.80;;;;;;5050568;28;20209;-88
2024/03/25 04:09:08;;;;;;;3.00;1.83;;;3.70;93.60;;;;;;5048168;28;20225;-89
2024/03/25 04:11:36;;;;;;;3.10;1.90;;;3.80;93.90;;;;;;5029335;28;20194;-89
2024/03/25 04:14:02;;;;;;;2.80;1.77;;;3.60;94.30;;;;;;5049304;28;20190;-88
2024/03/25 04:16:30;;;;;;;2.30;1.73;;;3.50;94.40;;;;;;5051034;28;20203;-88
2024/03/25 04:18:56;;;;;;;3.20;1.80;;;3.50;94.60;;;;;;5048131;28;20252;-89
2024/03/25 04:21:23;;;;;;;1.83;1.73;;;3.40;94.70;;;;;;5053753;28;20535;-89
2024/03/25 04:23:49;;;;;;;3.17;2.20;;;3.40;94.70;;;;;;5051245;28;20658;-89
2024/03/25 04:26:18;;;;;;;4.23;2.00;;;3.40;94.70;;;;;;5018960;28;20504;-89
2024/03/25 04:28:44;;;;;;;2.57;1.80;;;3.30;94.70;;;;;;5033916;28;20307;-89
2024/03/25 04:31:10;;;;;;;3.17;2.00;;;3.30;94.70;;;;;;5052013;28;20290;-88
2024/03/25 04:33:36;;;;;;;4.20;2.03;;;3.20;94.70;;;;;;5048174;28;20252;-88
2024/03/25 04:36:03;;;;;;;3.70;1.83;;;3.20;94.70;;;;;;5059121;28;20646;-88
